createdAt,value
2023-01-20T00:02:28.228Z,34.67
2023-01-20T00:04:55.091Z,34.93
2023-01-20T00:07:29.724Z,33.03
2023-01-20T00:09:56.859Z,33.57
2023-01-20T00:12:32.596Z,34.40
2023-01-20T00:14:59.422Z,36.83
2023-01-20T00:17:34.971Z,32.57
2023-01-20T00:20:08.621Z,33.33
2023-01-20T00:22:46.578Z,35.00
2023-01-20T00:25:21.467Z,33.83
2023-01-20T00:27:55.935Z,35.80
2023-01-20T00:30:29.752Z,34.33
2023-01-20T00:32:57.141Z,33.07
2023-01-20T00:35:32.882Z,31.50
2023-01-20T00:38:06.038Z,31.53
2023-01-20T00:40:39.533Z,35.63
2023-01-20T00:43:06.690Z,37.67
2023-01-20T00:45:40.509Z,33.23
2023-01-20T00:48:07.368Z,34.53
2023-01-20T00:53:16.539Z,31.50
2023-01-20T00:56:02.539Z,36.97
2023-01-20T00:58:38.145Z,36.43
2023-01-20T01:01:05.737Z,36.87
2023-01-20T01:03:39.604Z,33.17
2023-01-20T01:06:17.407Z,33.53
2023-01-20T01:08:51.630Z,35.60
2023-01-20T01:11:29.816Z,33.63
2023-01-20T01:14:05.077Z,33.73
2023-01-20T01:16:39.733Z,31.80
2023-01-20T01:19:08.143Z,34.50
2023-01-20T01:21:49.637Z,33.03
2023-01-20T01:24:18.158Z,33.10
2023-01-20T01:26:55.623Z,33.63
2023-01-20T01:29:29.677Z,30.53
2023-01-20T01:31:56.862Z,31.27
2023-01-20T01:34:30.612Z,33.17
2023-01-20T01:37:05.217Z,30.30
2023-01-20T01:39:38.725Z,32.40
2023-01-20T01:42:16.595Z,29.07
2023-01-20T01:45:20.642Z,29.37
2023-01-20T01:48:09.606Z,30.63
2023-01-20T01:50:49.607Z,29.37
2023-01-20T01:53:16.874Z,26.17
2023-01-20T01:55:59.763Z,25.20
2023-01-20T01:58:36.556Z,25.37
2023-01-20T02:01:04.183Z,27.23
2023-01-20T02:04:03.558Z,25.63
2023-01-20T02:12:09.834Z,22.30
2023-01-20T02:14:48.633Z,18.63
2023-01-20T02:17:26.784Z,20.93
2023-01-20T02:20:21.486Z,20.63
2023-01-20T02:23:04.003Z,19.83
2023-01-20T02:26:02.891Z,17.90
2023-01-20T02:29:02.664Z,21.00
2023-01-20T02:32:04.654Z,16.80
2023-01-20T02:34:47.991Z,18.13
2023-01-20T02:40:24.607Z,16.07
2023-01-20T02:43:50.637Z,16.17
2023-01-20T02:46:53.705Z,16.60
2023-01-20T02:49:49.645Z,17.33
2023-01-20T02:52:29.652Z,13.93
2023-01-20T02:55:24.597Z,15.63
2023-01-20T02:58:09.208Z,13.80
2023-01-20T03:01:03.096Z,14.43
2023-01-20T03:03:41.680Z,12.97
2023-01-20T03:06:17.029Z,14.47
2023-01-20T03:08:52.574Z,15.20
2023-01-20T03:11:28.238Z,13.40
2023-01-20T03:14:12.906Z,14.90
2023-01-20T03:16:47.605Z,12.07
2023-01-20T03:19:16.431Z,15.03
2023-01-20T03:21:52.174Z,14.93
2023-01-20T03:24:19.278Z,13.60
2023-01-20T03:27:05.751Z,11.10
2023-01-20T03:29:39.813Z,13.43
2023-01-20T03:32:11.247Z,13.70
2023-01-20T03:35:43.697Z,13.50
2023-01-20T03:38:36.581Z,14.60
2023-01-20T03:41:55.632Z,15.73
2023-01-20T03:44:34.936Z,16.40
2023-01-20T03:47:33.563Z,15.33
2023-01-20T03:50:19.562Z,16.40
2023-01-20T03:52:54.099Z,18.97
2023-01-20T03:55:36.508Z,18.20
2023-01-20T03:58:14.597Z,20.33
2023-01-20T04:00:52.615Z,19.30
2023-01-20T04:03:29.946Z,17.70
2023-01-20T04:06:10.181Z,18.43
2023-01-20T04:08:43.051Z,20.33
2023-01-20T04:11:20.515Z,20.57
2023-01-20T04:13:53.686Z,22.40
2023-01-20T04:16:23.119Z,23.10
2023-01-20T04:18:58.926Z,22.77
2023-01-20T04:21:39.170Z,22.07
2023-01-20T04:24:28.640Z,25.63
2023-01-20T04:27:03.155Z,29.10
2023-01-20T04:29:30.416Z,23.47
2023-01-20T04:32:08.713Z,28.57
2023-01-20T04:34:35.823Z,24.23
2023-01-20T04:37:11.034Z,27.20
2023-01-20T04:39:38.202Z,24.40
2023-01-20T04:42:13.604Z,26.00
2023-01-20T04:44:46.748Z,27.60
2023-01-20T04:55:17.981Z,29.80
2023-01-20T04:57:54.820Z,26.47
2023-01-20T05:00:29.055Z,26.57
2023-01-20T05:03:07.754Z,28.43
2023-01-20T05:05:41.604Z,27.60
2023-01-20T05:08:12.527Z,26.97
2023-01-20T05:14:25.712Z,28.50
2023-01-20T05:17:10.991Z,30.70
2023-01-20T05:19:44.574Z,26.20
2023-01-20T05:22:18.153Z,27.97
2023-01-20T05:24:51.821Z,27.77
2023-01-20T05:28:14.346Z,28.67
2023-01-20T05:30:50.681Z,28.30
2023-01-20T05:33:24.608Z,30.20
2023-01-20T05:36:03.661Z,26.37
2023-01-20T05:38:44.727Z,25.87
2023-01-20T05:41:15.934Z,23.87
2023-01-20T05:43:49.648Z,25.13
2023-01-20T05:46:24.406Z,24.77
2023-01-20T05:48:51.732Z,24.13
2023-01-20T05:51:20.914Z,23.00
2023-01-20T05:53:56.981Z,27.37
2023-01-20T05:56:25.325Z,28.47
2023-01-20T05:59:02.671Z,20.77
2023-01-20T06:01:30.404Z,24.67
2023-01-20T06:04:03.725Z,22.23
2023-01-20T06:06:30.762Z,22.50
2023-01-20T06:09:04.665Z,20.70
2023-01-20T06:11:32.067Z,25.40
2023-01-20T06:14:05.688Z,21.17
2023-01-20T06:16:33.714Z,22.97
2023-01-20T06:19:00.850Z,20.07
2023-01-20T06:21:34.806Z,23.87
2023-01-20T06:24:01.555Z,21.10
2023-01-20T06:29:07.199Z,21.07
2023-01-20T06:31:41.738Z,24.97
2023-01-20T06:34:08.902Z,23.13
2023-01-20T06:36:42.891Z,23.40
2023-01-20T06:39:22.820Z,27.17
2023-01-20T06:41:57.117Z,24.53
2023-01-20T06:44:32.986Z,23.27
2023-01-20T06:47:07.916Z,23.10
2023-01-20T06:49:35.030Z,24.57
2023-01-20T06:52:10.007Z,23.60
2023-01-20T06:54:43.912Z,26.30
2023-01-20T06:57:18.726Z,24.47
2023-01-20T06:59:52.651Z,25.33
2023-01-20T07:02:22.395Z,20.63
2023-01-20T07:04:58.731Z,24.43
2023-01-20T07:07:25.803Z,22.07
2023-01-20T07:10:01.700Z,23.07
2023-01-20T07:12:30.156Z,25.77
2023-01-20T07:15:03.800Z,24.60
2023-01-20T07:17:30.891Z,27.63
2023-01-20T07:20:04.756Z,25.87
2023-01-20T07:22:31.683Z,26.43
2023-01-20T07:25:04.767Z,22.07
2023-01-20T07:27:31.827Z,26.33
2023-01-20T07:30:05.622Z,25.80
2023-01-20T07:32:32.872Z,27.23
2023-01-20T07:35:06.726Z,27.17
2023-01-20T07:37:42.246Z,27.53
2023-01-20T07:40:22.833Z,26.17
2023-01-20T07:42:56.842Z,32.07
2023-01-20T07:45:23.898Z,28.73
2023-01-20T07:47:57.892Z,26.70
2023-01-20T07:50:27.801Z,27.13
2023-01-20T07:53:02.115Z,27.93
2023-01-20T07:55:29.486Z,25.37
2023-01-20T07:58:03.722Z,33.13
2023-01-20T08:00:31.552Z,32.37
2023-01-20T08:03:07.018Z,27.83
2023-01-20T08:05:36.097Z,37.17
2023-01-20T08:08:09.634Z,28.33
2023-01-20T08:10:37.420Z,23.10
2023-01-20T08:13:12.787Z,21.20
2023-01-20T08:15:47.281Z,23.60
2023-01-20T08:18:14.518Z,25.73
2023-01-20T08:20:48.970Z,28.77
2023-01-20T08:23:22.768Z,27.20
2023-01-20T08:25:56.886Z,32.17
2023-01-20T08:28:24.111Z,29.90
2023-01-20T08:30:59.170Z,29.63
2023-01-20T08:33:26.764Z,29.20
2023-01-20T08:36:03.410Z,29.93
2023-01-20T08:38:37.158Z,29.73
2023-01-20T08:41:16.687Z,27.67
2023-01-20T08:43:49.872Z,29.90
2023-01-20T08:46:19.125Z,31.57
2023-01-20T08:48:55.891Z,22.43
2023-01-20T08:51:34.507Z,25.90
2023-01-20T08:54:01.818Z,27.70
2023-01-20T08:56:31.058Z,26.33
2023-01-20T08:59:05.766Z,25.50
2023-01-20T09:01:36.610Z,27.10
2023-01-20T09:04:11.784Z,24.97
2023-01-20T09:06:51.492Z,28.17
2023-01-20T09:09:27.133Z,25.00
2023-01-20T09:11:56.552Z,24.43
2023-01-20T09:14:31.753Z,19.87
2023-01-20T09:17:02.016Z,26.33
2023-01-20T09:19:38.865Z,26.53
2023-01-20T09:22:06.708Z,27.00
2023-01-20T09:24:41.109Z,26.67
2023-01-20T09:27:08.057Z,23.57
2023-01-20T09:29:42.936Z,25.47
2023-01-20T09:32:13.289Z,26.17
2023-01-20T09:34:46.593Z,26.33
2023-01-20T09:37:38.718Z,27.83
2023-01-20T09:40:38.471Z,25.97
2023-01-20T09:43:54.731Z,16.47
2023-01-20T09:46:49.325Z,20.43
2023-01-20T09:49:44.655Z,26.67
2023-01-20T09:52:44.389Z,24.67
2023-01-20T09:55:24.921Z,26.20
2023-01-20T09:58:12.638Z,26.70
2023-01-20T10:00:47.665Z,23.77
2023-01-20T10:07:00.284Z,26.97
2023-01-20T10:09:43.906Z,26.17
2023-01-20T10:12:22.350Z,23.20
2023-01-20T10:15:06.734Z,22.07
2023-01-20T10:17:48.321Z,27.00
2023-01-20T10:23:21.523Z,24.77
2023-01-20T10:26:15.753Z,25.90
2023-01-20T10:29:06.427Z,27.83
2023-01-20T10:32:22.679Z,25.00
2023-01-20T10:38:54.330Z,23.60
2023-01-20T10:41:43.443Z,23.43
2023-01-20T10:44:15.880Z,24.07
2023-01-20T10:47:06.110Z,25.83
2023-01-20T10:49:47.547Z,26.37
2023-01-20T10:52:47.063Z,25.77
2023-01-20T10:55:45.665Z,28.03
2023-01-20T10:58:32.779Z,26.40
2023-01-20T11:01:10.725Z,22.23
2023-01-20T11:03:49.435Z,29.93
2023-01-20T11:06:20.852Z,27.13
2023-01-20T11:08:56.116Z,26.63
2023-01-20T11:11:25.794Z,29.30
2023-01-20T11:14:35.947Z,25.03
2023-01-20T11:17:07.817Z,23.37
2023-01-20T11:20:04.000Z,26.10
2023-01-20T11:32:54.084Z,24.50
2023-01-20T11:35:26.320Z,28.60
2023-01-20T11:37:59.940Z,27.43
2023-01-20T11:40:35.997Z,27.87
2023-01-20T11:43:09.852Z,27.17
2023-01-20T11:45:44.420Z,27.63
2023-01-20T11:48:16.247Z,26.57
2023-01-20T11:50:43.427Z,23.63
2023-01-20T11:53:24.021Z,31.30
2023-01-20T11:56:14.352Z,30.60
2023-01-20T11:58:57.978Z,30.27
2023-01-20T12:01:28.159Z,25.67
2023-01-20T12:04:22.953Z,33.43
2023-01-20T12:07:25.944Z,26.73
2023-01-20T12:10:21.780Z,33.70
2023-01-20T12:13:01.864Z,33.23
2023-01-20T12:15:45.342Z,31.90
2023-01-20T12:18:28.164Z,29.77
2023-01-20T12:21:26.109Z,31.47
2023-01-20T12:24:06.319Z,36.07
2023-01-20T12:26:35.866Z,37.67
2023-01-20T12:29:28.066Z,36.17
2023-01-20T12:32:01.894Z,25.53
2023-01-20T12:34:37.886Z,30.33
2023-01-20T13:26:58.848Z,27.80
2023-01-20T13:56:48.339Z,35.17
2023-01-20T14:26:53.081Z,32.43
2023-01-20T14:29:22.325Z,29.07
2023-01-20T14:31:57.977Z,28.70
2023-01-20T16:26:07.272Z,48.13
2023-01-20T16:43:20.613Z,46.60
2023-01-20T16:54:48.304Z,43.63
2023-01-20T16:56:35.222Z,54.47
2023-01-20T16:59:34.251Z,53.57
2023-01-20T17:02:01.205Z,48.30
2023-01-20T17:04:44.905Z,45.40
2023-01-20T17:07:23.899Z,30.33
2023-01-20T17:13:16.916Z,22.57
2023-01-20T17:16:09.117Z,24.50
2023-01-20T17:18:58.648Z,21.10
2023-01-20T17:21:53.486Z,24.10
2023-01-20T17:24:33.271Z,26.17
2023-01-20T17:27:21.092Z,20.57
2023-01-20T17:29:58.643Z,22.57
2023-01-20T17:33:01.913Z,24.63
2023-01-20T17:35:54.859Z,22.07
2023-01-20T17:38:49.958Z,22.37
2023-01-20T17:41:28.086Z,21.27
2023-01-20T17:44:07.194Z,24.80
2023-01-20T17:46:53.123Z,22.73
2023-01-20T17:50:13.330Z,20.30
2023-01-20T17:53:00.430Z,22.00
2023-01-20T17:55:43.100Z,22.63
2023-01-20T17:58:28.138Z,20.20
2023-01-20T18:01:55.626Z,22.37
2023-01-20T18:07:28.107Z,21.30
2023-01-20T18:10:01.831Z,21.00
2023-01-20T18:12:53.405Z,20.60
2023-01-20T18:15:50.447Z,19.50
2023-01-20T18:18:27.009Z,19.63
2023-01-20T18:21:18.531Z,20.43
2023-01-20T18:24:03.302Z,19.40
2023-01-20T18:26:33.017Z,19.63
2023-01-20T18:29:27.354Z,17.33
2023-01-20T18:31:57.017Z,16.90
2023-01-20T18:34:34.014Z,18.20
2023-01-20T18:37:09.883Z,19.13
2023-01-20T18:39:52.198Z,17.00
2023-01-20T18:42:28.613Z,18.07
2023-01-20T18:45:23.546Z,20.03
2023-01-20T18:48:23.481Z,16.93
2023-01-20T18:51:14.696Z,16.00
2023-01-20T18:53:49.017Z,16.60
2023-01-20T18:56:44.291Z,17.27
2023-01-20T18:59:32.248Z,16.87
2023-01-20T19:02:21.674Z,16.73
2023-01-20T19:05:08.920Z,18.27
2023-01-20T19:07:46.530Z,16.87
2023-01-20T19:13:10.953Z,17.07
2023-01-20T19:15:54.097Z,16.20
2023-01-20T19:18:37.478Z,16.50
2023-01-20T19:21:20.319Z,17.90
2023-01-20T19:27:23.488Z,17.03
2023-01-20T19:30:01.129Z,20.53
2023-01-20T19:32:35.715Z,18.87
2023-01-20T19:35:28.248Z,16.37
2023-01-20T19:37:56.680Z,15.83
2023-01-20T19:40:33.112Z,19.87
2023-01-20T19:43:07.982Z,18.43
2023-01-20T19:45:46.202Z,18.33
2023-01-20T19:48:23.058Z,19.03
2023-01-20T19:51:15.418Z,18.97
2023-01-20T19:53:47.503Z,17.83
2023-01-20T19:56:29.194Z,21.10
2023-01-20T19:59:03.908Z,17.70
2023-01-20T20:01:41.624Z,20.03
2023-01-20T20:04:31.550Z,19.73
2023-01-20T20:07:08.618Z,21.70
2023-01-20T20:09:43.188Z,20.60
2023-01-20T20:12:22.413Z,20.17
2023-01-20T20:14:58.617Z,18.73
2023-01-20T20:17:39.372Z,21.27
2023-01-20T20:20:08.557Z,20.30
2023-01-20T20:22:46.470Z,19.80
2023-01-20T20:25:29.383Z,26.70
2023-01-20T20:28:16.238Z,29.23
2023-01-20T20:30:53.153Z,24.37
2023-01-20T20:33:27.086Z,21.33
2023-01-20T20:36:18.485Z,21.57
2023-01-20T20:38:52.102Z,21.63
2023-01-20T20:41:29.402Z,25.63
2023-01-20T20:44:04.027Z,22.70
2023-01-20T20:46:40.092Z,22.97
2023-01-20T20:49:28.991Z,23.03
2023-01-20T20:52:03.261Z,23.37
2023-01-20T20:54:37.054Z,24.13
2023-01-20T20:57:08.048Z,24.77
2023-01-20T20:59:58.087Z,23.30
2023-01-20T21:02:33.318Z,29.43
2023-01-20T21:05:00.359Z,30.87
2023-01-20T21:07:36.765Z,27.83
2023-01-20T21:10:05.412Z,26.87
2023-01-20T21:12:48.136Z,28.20
2023-01-20T21:15:24.643Z,29.20
2023-01-20T21:17:59.904Z,25.17
2023-01-20T21:20:29.662Z,25.70
2023-01-20T21:23:03.094Z,24.70
2023-01-20T21:25:31.156Z,25.83
2023-01-20T21:27:58.468Z,24.70
2023-01-20T21:30:32.483Z,25.27
2023-01-20T21:33:11.225Z,24.37
2023-01-20T21:35:48.087Z,26.27
2023-01-20T21:38:24.132Z,29.13
2023-01-20T21:41:07.212Z,25.70
2023-01-20T21:43:56.506Z,26.00
2023-01-20T21:46:41.496Z,25.47
2023-01-20T21:49:53.335Z,28.77
2023-01-20T21:52:44.516Z,27.10
2023-01-20T21:55:36.183Z,28.37
2023-01-20T21:58:03.429Z,28.33
2023-01-20T22:00:37.299Z,26.30
2023-01-20T22:03:04.699Z,30.53
2023-01-20T22:06:04.187Z,27.00
2023-01-20T22:08:40.274Z,30.67
2023-01-20T22:11:19.857Z,27.57
2023-01-20T22:13:47.339Z,27.90
2023-01-20T22:16:21.526Z,28.53
2023-01-20T22:18:52.321Z,27.50
2023-01-20T22:21:29.091Z,29.80
2023-01-20T22:24:11.720Z,28.27
2023-01-20T22:26:49.662Z,27.57
2023-01-20T22:29:17.635Z,28.53
2023-01-20T22:31:57.780Z,27.70
2023-01-20T22:34:27.650Z,28.10
2023-01-20T22:37:13.119Z,29.30
2023-01-20T22:39:47.348Z,25.80
2023-01-20T22:42:17.684Z,27.07
2023-01-20T22:44:51.549Z,30.33
2023-01-20T22:47:21.027Z,28.07
2023-01-20T22:50:02.632Z,27.17
2023-01-20T22:52:37.087Z,31.80
2023-01-20T22:55:11.137Z,26.87
2023-01-20T22:57:38.561Z,28.77
2023-01-20T23:00:19.425Z,28.17
2023-01-20T23:02:49.572Z,27.93
2023-01-20T23:05:32.260Z,28.70
2023-01-20T23:08:20.331Z,27.53
2023-01-20T23:10:49.260Z,28.57
2023-01-20T23:13:29.094Z,29.10
2023-01-20T23:16:08.342Z,28.40
2023-01-20T23:18:56.828Z,27.47
2023-01-20T23:21:30.080Z,26.17
2023-01-20T23:24:09.363Z,25.60
2023-01-20T23:26:47.417Z,31.87
2023-01-20T23:29:30.307Z,31.30
2023-01-20T23:32:09.223Z,37.07
2023-01-20T23:34:39.344Z,33.80
2023-01-20T23:37:32.488Z,35.07
2023-01-20T23:43:23.405Z,27.77
2023-01-20T23:45:58.275Z,26.73
2023-01-20T23:48:40.634Z,30.53
2023-01-20T23:52:17.684Z,27.23
2023-01-20T23:55:12.559Z,25.43
2023-01-20T23:57:50.172Z,28.83
